Albertville, Wisconsin
Current Conditions -  °F | °C
As of 12:20 PM on Thursday 23 Oct 2014 (Local Time) from KLUM Reporting Station
Haze Haze  
Wind Chill: 52°   Ceiling: 300
Heat Index: 52°   Visibility: 5mi
Dew Point: 50°   Wind: 6mph
Humidity: 94%   Direction: 200°SSW
Pressure: 30.02"   Gusts: NA
Location:  45.0099°N, 91.7075°W
Report Text: KLUM 231720Z AUTO 20005KT 5SM BR OVC003 11/10 A3002 RMK AO2
Loading
Personal Weather Stations






























Interactive Weather Map
Tropical Storm Tracking
New forecast layout! Learn more

10-Day Weather Forecast

Advertisements
Track Severe Weather on mobile